KDXX

Details ICAO KDXX
Name LAC QUI PARLE CO
Region United States
Timezone America/Chicago (UTC-6.0)
Plans Departing 1
Arriving 1
Stats Elevation 1,082 ft / 330 m (AMSL)
Location 44.986222° -96.177693°
Runways 2
Magnetic Variation 2.554° E
Sunrise 2017-12-12 13:55:21 UTC / 2017-12-12 07:55:21 Local
Sunset 2017-12-12 22:44:39 UTC / 2017-12-12 16:44:39 Local
Advertisement - Login to hide

Runways

ID Width Length Bearing (true) Bearing (mag) Surface Threshold Offset Overrun Length
08 135 ft / 41 m 3,011 ft / 918 m 90.00° 87.45° Grass 0 ft / 0 m 0 ft / 0 m
13 75 ft / 23 m 3,300 ft / 1,006 m 140.11° 137.56° Asphalt 0 ft / 0 m 0 ft / 0 m
26 135 ft / 41 m 3,011 ft / 918 m 270.00° 267.45° Grass 0 ft / 0 m 0 ft / 0 m
31 75 ft / 23 m 3,300 ft / 1,006 m 320.11° 317.56° Asphalt 0 ft / 0 m 0 ft / 0 m

Map

Weather


0- 5 10 15 20 25 30 35+ Temperature / ° C

Clouds and Precipitation
Forecast for 2017-12-13 00:00 UTC. Updated 28 minutes ago

Ground ~20,000 ft ~40,000 ft Winds

METAR

KDXX 122335Z AUTO 22007KT 10SM CLR 03/M01 A2979 RMK AO2

TAF

Not found

Frequencies

Unicom 122.80 MHz CTAF/UNICOM
Warning: Do not use this data for real-world aviation or navigation. No guarantee of current accuracy is given.